sensor_id;sensor_type;location;lat;lon;timestamp;P1;durP1;ratioP1;P2;durP2;ratioP2
58878;SDS011;44660;42.664;23.266;2023-04-03T00:01:14;2.70;;;1.95;;
58878;SDS011;44660;42.664;23.266;2023-04-03T00:03:40;3.20;;;1.90;;
58878;SDS011;44660;42.664;23.266;2023-04-03T00:06:09;6.05;;;2.10;;
58878;SDS011;44660;42.664;23.266;2023-04-03T00:08:36;5.30;;;2.30;;
58878;SDS011;44660;42.664;23.266;2023-04-03T00:11:02;5.22;;;2.60;;
58878;SDS011;44660;42.664;23.266;2023-04-03T00:13:28;6.18;;;2.50;;
58878;SDS011;44660;42.664;23.266;2023-04-03T00:15:54;4.57;;;2.40;;
58878;SDS011;44660;42.664;23.266;2023-04-03T00:18:19;9.57;;;3.72;;
58878;SDS011;44660;42.664;23.266;2023-04-03T00:20:45;8.35;;;3.42;;
58878;SDS011;44660;42.664;23.266;2023-04-03T00:23:10;9.75;;;3.83;;
58878;SDS011;44660;42.664;23.266;2023-04-03T00:25:36;5.97;;;2.60;;
58878;SDS011;44660;42.664;23.266;2023-04-03T00:28:02;4.18;;;2.17;;
58878;SDS011;44660;42.664;23.266;2023-04-03T00:30:28;4.53;;;1.63;;
58878;SDS011;44660;42.664;23.266;2023-04-03T00:32:54;3.83;;;2.13;;
58878;SDS011;44660;42.664;23.266;2023-04-03T00:35:20;4.43;;;1.83;;
58878;SDS011;44660;42.664;23.266;2023-04-03T00:37:47;6.22;;;2.50;;
58878;SDS011;44660;42.664;23.266;2023-04-03T00:40:13;5.38;;;2.33;;
58878;SDS011;44660;42.664;23.266;2023-04-03T00:42:41;5.15;;;2.92;;
58878;SDS011;44660;42.664;23.266;2023-04-03T00:47:35;6.13;;;3.25;;
58878;SDS011;44660;42.664;23.266;2023-04-03T00:50:01;6.90;;;3.20;;
58878;SDS011;44660;42.664;23.266;2023-04-03T00:52:28;7.07;;;3.15;;
58878;SDS011;44660;42.664;23.266;2023-04-03T00:54:57;4.93;;;3.00;;
58878;SDS011;44660;42.664;23.266;2023-04-03T00:57:27;5.50;;;3.05;;
58878;SDS011;44660;42.664;23.266;2023-04-03T00:59:56;7.43;;;2.90;;
58878;SDS011;44660;42.664;23.266;2023-04-03T01:02:26;4.20;;;2.53;;
58878;SDS011;44660;42.664;23.266;2023-04-03T01:04:52;3.55;;;2.47;;
58878;SDS011;44660;42.664;23.266;2023-04-03T01:07:19;3.40;;;2.33;;
58878;SDS011;44660;42.664;23.266;2023-04-03T01:09:47;5.53;;;2.60;;
58878;SDS011;44660;42.664;23.266;2023-04-03T01:12:25;4.15;;;2.00;;
58878;SDS011;44660;42.664;23.266;2023-04-03T01:14:54;5.53;;;2.45;;
58878;SDS011;44660;42.664;23.266;2023-04-03T01:20:43;5.00;;;2.60;;
58878;SDS011;44660;42.664;23.266;2023-04-03T01:25:42;6.10;;;2.88;;
58878;SDS011;44660;42.664;23.266;2023-04-03T01:28:13;6.90;;;3.13;;
58878;SDS011;44660;42.664;23.266;2023-04-03T01:33:41;7.72;;;2.90;;
58878;SDS011;44660;42.664;23.266;2023-04-03T01:36:07;6.10;;;2.92;;
58878;SDS011;44660;42.664;23.266;2023-04-03T01:38:33;3.33;;;1.83;;
58878;SDS011;44660;42.664;23.266;2023-04-03T01:40:59;6.05;;;2.50;;
58878;SDS011;44660;42.664;23.266;2023-04-03T01:43:25;4.22;;;2.33;;
58878;SDS011;44660;42.664;23.266;2023-04-03T01:45:50;3.90;;;1.92;;
58878;SDS011;44660;42.664;23.266;2023-04-03T01:48:17;3.95;;;2.50;;
58878;SDS011;44660;42.664;23.266;2023-04-03T01:50:43;3.58;;;2.10;;
58878;SDS011;44660;42.664;23.266;2023-04-03T01:53:08;4.95;;;2.70;;
58878;SDS011;44660;42.664;23.266;2023-04-03T01:55:34;3.63;;;2.20;;
58878;SDS011;44660;42.664;23.266;2023-04-03T01:57:59;4.93;;;2.28;;
58878;SDS011;44660;42.664;23.266;2023-04-03T02:00:25;4.80;;;2.22;;
58878;SDS011;44660;42.664;23.266;2023-04-03T02:02:51;3.97;;;2.35;;
58878;SDS011;44660;42.664;23.266;2023-04-03T02:05:17;6.03;;;2.60;;
58878;SDS011;44660;42.664;23.266;2023-04-03T02:07:42;3.58;;;2.00;;
58878;SDS011;44660;42.664;23.266;2023-04-03T02:10:08;4.78;;;2.65;;
58878;SDS011;44660;42.664;23.266;2023-04-03T02:12:34;3.70;;;2.00;;
58878;SDS011;44660;42.664;23.266;2023-04-03T02:14:59;4.07;;;1.80;;
58878;SDS011;44660;42.664;23.266;2023-04-03T02:17:25;4.40;;;2.45;;
58878;SDS011;44660;42.664;23.266;2023-04-03T02:19:51;6.28;;;2.38;;
58878;SDS011;44660;42.664;23.266;2023-04-03T02:22:17;10.65;;;3.00;;
58878;SDS011;44660;42.664;23.266;2023-04-03T02:24:43;6.78;;;2.85;;
58878;SDS011;44660;42.664;23.266;2023-04-03T02:27:08;5.43;;;2.72;;
58878;SDS011;44660;42.664;23.266;2023-04-03T02:29:34;6.65;;;2.20;;
58878;SDS011;44660;42.664;23.266;2023-04-03T02:31:59;5.63;;;2.42;;
58878;SDS011;44660;42.664;23.266;2023-04-03T02:34:25;28.17;;;10.52;;
58878;SDS011;44660;42.664;23.266;2023-04-03T02:36:50;31.02;;;12.02;;
58878;SDS011;44660;42.664;23.266;2023-04-03T02:39:15;19.02;;;7.65;;
58878;SDS011;44660;42.664;23.266;2023-04-03T02:41:41;13.55;;;5.32;;
58878;SDS011;44660;42.664;23.266;2023-04-03T02:44:07;5.25;;;2.92;;
58878;SDS011;44660;42.664;23.266;2023-04-03T02:46:37;8.63;;;3.72;;
58878;SDS011;44660;42.664;23.266;2023-04-03T02:49:02;8.27;;;3.67;;
58878;SDS011;44660;42.664;23.266;2023-04-03T02:51:28;9.05;;;3.40;;
58878;SDS011;44660;42.664;23.266;2023-04-03T02:53:54;11.68;;;3.63;;
58878;SDS011;44660;42.664;23.266;2023-04-03T02:56:20;8.18;;;3.60;;
58878;SDS011;44660;42.664;23.266;2023-04-03T02:58:46;8.68;;;3.00;;
58878;SDS011;44660;42.664;23.266;2023-04-03T03:01:11;11.68;;;4.28;;
58878;SDS011;44660;42.664;23.266;2023-04-03T03:03:37;6.72;;;3.22;;
58878;SDS011;44660;42.664;23.266;2023-04-03T03:06:03;6.60;;;3.60;;
58878;SDS011;44660;42.664;23.266;2023-04-03T03:08:30;7.22;;;3.97;;
58878;SDS011;44660;42.664;23.266;2023-04-03T03:10:56;35.35;;;18.70;;
58878;SDS011;44660;42.664;23.266;2023-04-03T03:13:21;39.00;;;21.10;;
58878;SDS011;44660;42.664;23.266;2023-04-03T03:15:46;65.90;;;35.10;;
58878;SDS011;44660;42.664;23.266;2023-04-03T03:18:12;31.90;;;18.92;;
58878;SDS011;44660;42.664;23.266;2023-04-03T03:20:37;42.83;;;22.58;;
58878;SDS011;44660;42.664;23.266;2023-04-03T03:23:03;38.10;;;21.38;;
58878;SDS011;44660;42.664;23.266;2023-04-03T03:25:28;50.47;;;26.23;;
58878;SDS011;44660;42.664;23.266;2023-04-03T03:27:54;15.30;;;9.15;;
58878;SDS011;44660;42.664;23.266;2023-04-03T03:30:19;11.95;;;4.82;;
58878;SDS011;44660;42.664;23.266;2023-04-03T03:32:45;12.05;;;4.60;;
58878;SDS011;44660;42.664;23.266;2023-04-03T03:35:11;9.38;;;4.32;;
58878;SDS011;44660;42.664;23.266;2023-04-03T03:37:36;6.20;;;3.35;;
58878;SDS011;44660;42.664;23.266;2023-04-03T03:40:02;9.27;;;3.75;;
58878;SDS011;44660;42.664;23.266;2023-04-03T03:42:27;22.30;;;6.35;;
58878;SDS011;44660;42.664;23.266;2023-04-03T03:44:53;12.35;;;6.00;;
58878;SDS011;44660;42.664;23.266;2023-04-03T03:47:18;17.48;;;5.70;;
58878;SDS011;44660;42.664;23.266;2023-04-03T03:49:44;15.38;;;6.15;;
58878;SDS011;44660;42.664;23.266;2023-04-03T03:52:09;16.35;;;5.45;;
58878;SDS011;44660;42.664;23.266;2023-04-03T03:54:35;14.38;;;5.72;;
58878;SDS011;44660;42.664;23.266;2023-04-03T03:57:02;13.90;;;5.43;;
58878;SDS011;44660;42.664;23.266;2023-04-03T03:59:28;14.38;;;5.70;;
58878;SDS011;44660;42.664;23.266;2023-04-03T04:01:53;12.45;;;6.18;;
58878;SDS011;44660;42.664;23.266;2023-04-03T04:04:19;17.05;;;6.70;;
58878;SDS011;44660;42.664;23.266;2023-04-03T04:06:44;12.05;;;5.72;;
58878;SDS011;44660;42.664;23.266;2023-04-03T04:09:10;54.08;;;24.30;;
58878;SDS011;44660;42.664;23.266;2023-04-03T04:11:35;79.03;;;40.85;;
58878;SDS011;44660;42.664;23.266;2023-04-03T04:14:01;31.17;;;15.45;;
58878;SDS011;44660;42.664;23.266;2023-04-03T04:16:26;12.80;;;6.72;;
58878;SDS011;44660;42.664;23.266;2023-04-03T04:18:52;14.18;;;5.80;;
58878;SDS011;44660;42.664;23.266;2023-04-03T04:21:18;12.50;;;6.22;;
58878;SDS011;44660;42.664;23.266;2023-04-03T04:23:43;15.50;;;6.10;;
58878;SDS011;44660;42.664;23.266;2023-04-03T04:26:09;11.60;;;6.00;;
58878;SDS011;44660;42.664;23.266;2023-04-03T04:28:35;18.27;;;6.55;;
58878;SDS011;44660;42.664;23.266;2023-04-03T04:31:00;17.65;;;6.57;;
58878;SDS011;44660;42.664;23.266;2023-04-03T04:33:26;15.38;;;7.32;;
58878;SDS011;44660;42.664;23.266;2023-04-03T04:35:51;13.38;;;6.63;;
58878;SDS011;44660;42.664;23.266;2023-04-03T04:38:17;16.55;;;6.88;;
58878;SDS011;44660;42.664;23.266;2023-04-03T04:40:42;16.33;;;6.35;;
58878;SDS011;44660;42.664;23.266;2023-04-03T04:43:08;15.77;;;7.57;;
58878;SDS011;44660;42.664;23.266;2023-04-03T04:45:33;17.67;;;6.22;;
58878;SDS011;44660;42.664;23.266;2023-04-03T04:47:59;16.10;;;6.95;;
58878;SDS011;44660;42.664;23.266;2023-04-03T04:50:25;22.27;;;8.07;;
58878;SDS011;44660;42.664;23.266;2023-04-03T04:52:50;13.68;;;7.25;;
58878;SDS011;44660;42.664;23.266;2023-04-03T04:55:15;14.95;;;8.13;;
58878;SDS011;44660;42.664;23.266;2023-04-03T04:57:41;18.63;;;8.00;;
58878;SDS011;44660;42.664;23.266;2023-04-03T05:00:07;19.70;;;6.82;;
58878;SDS011;44660;42.664;23.266;2023-04-03T05:02:33;13.48;;;6.65;;
58878;SDS011;44660;42.664;23.266;2023-04-03T05:04:58;12.35;;;6.40;;
58878;SDS011;44660;42.664;23.266;2023-04-03T05:07:24;22.92;;;6.38;;
58878;SDS011;44660;42.664;23.266;2023-04-03T05:09:49;16.63;;;7.05;;
58878;SDS011;44660;42.664;23.266;2023-04-03T05:12:15;24.48;;;10.38;;
58878;SDS011;44660;42.664;23.266;2023-04-03T05:14:41;38.47;;;19.30;;
58878;SDS011;44660;42.664;23.266;2023-04-03T05:17:06;40.95;;;19.05;;
58878;SDS011;44660;42.664;23.266;2023-04-03T05:19:32;76.93;;;36.60;;
58878;SDS011;44660;42.664;23.266;2023-04-03T05:21:58;52.65;;;26.75;;
58878;SDS011;44660;42.664;23.266;2023-04-03T05:24:23;24.35;;;11.23;;
58878;SDS011;44660;42.664;23.266;2023-04-03T05:26:48;15.70;;;8.15;;
58878;SDS011;44660;42.664;23.266;2023-04-03T05:29:14;15.15;;;8.30;;
58878;SDS011;44660;42.664;23.266;2023-04-03T05:31:40;16.10;;;7.97;;
58878;SDS011;44660;42.664;23.266;2023-04-03T05:34:05;14.90;;;8.85;;
58878;SDS011;44660;42.664;23.266;2023-04-03T05:36:31;18.67;;;8.23;;
58878;SDS011;44660;42.664;23.266;2023-04-03T05:38:56;17.58;;;8.50;;
58878;SDS011;44660;42.664;23.266;2023-04-03T05:41:22;15.05;;;7.80;;
58878;SDS011;44660;42.664;23.266;2023-04-03T05:43:47;18.25;;;8.43;;
58878;SDS011;44660;42.664;23.266;2023-04-03T05:46:14;26.70;;;8.23;;
58878;SDS011;44660;42.664;23.266;2023-04-03T05:48:41;24.88;;;8.25;;
58878;SDS011;44660;42.664;23.266;2023-04-03T05:51:09;18.58;;;7.80;;
58878;SDS011;44660;42.664;23.266;2023-04-03T05:53:40;20.65;;;8.00;;
58878;SDS011;44660;42.664;23.266;2023-04-03T05:56:06;14.20;;;7.70;;
58878;SDS011;44660;42.664;23.266;2023-04-03T05:58:31;19.40;;;8.35;;
58878;SDS011;44660;42.664;23.266;2023-04-03T06:00:57;22.35;;;11.93;;
58878;SDS011;44660;42.664;23.266;2023-04-03T06:03:23;49.65;;;26.17;;
58878;SDS011;44660;42.664;23.266;2023-04-03T06:05:48;45.58;;;25.85;;
58878;SDS011;44660;42.664;23.266;2023-04-03T06:08:13;28.65;;;14.40;;
58878;SDS011;44660;42.664;23.266;2023-04-03T06:10:40;21.52;;;9.48;;
58878;SDS011;44660;42.664;23.266;2023-04-03T06:13:05;17.40;;;8.73;;
58878;SDS011;44660;42.664;23.266;2023-04-03T06:15:32;17.25;;;8.73;;
58878;SDS011;44660;42.664;23.266;2023-04-03T06:17:57;27.38;;;8.90;;
58878;SDS011;44660;42.664;23.266;2023-04-03T06:20:24;25.42;;;10.25;;
58878;SDS011;44660;42.664;23.266;2023-04-03T06:22:49;22.00;;;9.20;;
58878;SDS011;44660;42.664;23.266;2023-04-03T06:25:16;19.52;;;8.02;;
58878;SDS011;44660;42.664;23.266;2023-04-03T06:27:43;14.25;;;7.25;;
58878;SDS011;44660;42.664;23.266;2023-04-03T06:30:09;13.45;;;7.22;;
58878;SDS011;44660;42.664;23.266;2023-04-03T06:32:35;14.45;;;6.10;;
58878;SDS011;44660;42.664;23.266;2023-04-03T06:35:01;18.80;;;7.45;;
58878;SDS011;44660;42.664;23.266;2023-04-03T06:37:26;12.80;;;6.20;;
58878;SDS011;44660;42.664;23.266;2023-04-03T06:39:53;13.48;;;6.03;;
58878;SDS011;44660;42.664;23.266;2023-04-03T06:42:19;13.85;;;6.32;;
58878;SDS011;44660;42.664;23.266;2023-04-03T06:44:45;14.13;;;6.32;;
58878;SDS011;44660;42.664;23.266;2023-04-03T06:47:12;12.07;;;6.03;;
58878;SDS011;44660;42.664;23.266;2023-04-03T06:49:38;12.20;;;5.65;;
58878;SDS011;44660;42.664;23.266;2023-04-03T06:52:04;9.60;;;5.95;;
58878;SDS011;44660;42.664;23.266;2023-04-03T06:54:30;14.07;;;7.05;;
58878;SDS011;44660;42.664;23.266;2023-04-03T06:56:57;15.68;;;7.68;;
58878;SDS011;44660;42.664;23.266;2023-04-03T06:59:22;8.95;;;5.32;;
58878;SDS011;44660;42.664;23.266;2023-04-03T07:01:48;10.05;;;5.15;;
58878;SDS011;44660;42.664;23.266;2023-04-03T07:04:14;9.68;;;4.82;;
58878;SDS011;44660;42.664;23.266;2023-04-03T07:06:40;10.23;;;4.75;;
58878;SDS011;44660;42.664;23.266;2023-04-03T07:09:07;12.82;;;5.30;;
58878;SDS011;44660;42.664;23.266;2023-04-03T07:11:34;12.00;;;4.72;;
58878;SDS011;44660;42.664;23.266;2023-04-03T07:13:59;8.00;;;4.30;;
58878;SDS011;44660;42.664;23.266;2023-04-03T07:16:25;11.73;;;4.05;;
58878;SDS011;44660;42.664;23.266;2023-04-03T07:18:50;7.47;;;4.05;;
58878;SDS011;44660;42.664;23.266;2023-04-03T07:21:16;9.30;;;4.38;;
58878;SDS011;44660;42.664;23.266;2023-04-03T07:23:42;8.80;;;3.97;;
58878;SDS011;44660;42.664;23.266;2023-04-03T07:26:07;9.23;;;4.18;;
58878;SDS011;44660;42.664;23.266;2023-04-03T07:28:34;12.98;;;4.15;;
58878;SDS011;44660;42.664;23.266;2023-04-03T07:31:00;10.52;;;4.00;;
58878;SDS011;44660;42.664;23.266;2023-04-03T07:33:29;8.23;;;3.78;;
58878;SDS011;44660;42.664;23.266;2023-04-03T07:35:54;10.32;;;3.95;;
58878;SDS011;44660;42.664;23.266;2023-04-03T07:38:20;9.25;;;4.40;;
58878;SDS011;44660;42.664;23.266;2023-04-03T07:40:46;13.30;;;5.80;;
58878;SDS011;44660;42.664;23.266;2023-04-03T07:43:13;10.77;;;5.47;;
58878;SDS011;44660;42.664;23.266;2023-04-03T07:45:39;9.93;;;5.30;;
58878;SDS011;44660;42.664;23.266;2023-04-03T07:48:05;12.50;;;5.22;;
58878;SDS011;44660;42.664;23.266;2023-04-03T07:50:31;13.68;;;4.50;;
58878;SDS011;44660;42.664;23.266;2023-04-03T07:52:57;7.60;;;3.83;;
58878;SDS011;44660;42.664;23.266;2023-04-03T07:55:23;10.48;;;3.30;;
58878;SDS011;44660;42.664;23.266;2023-04-03T07:57:48;6.35;;;3.60;;
58878;SDS011;44660;42.664;23.266;2023-04-03T08:00:14;8.43;;;3.00;;
58878;SDS011;44660;42.664;23.266;2023-04-03T08:02:42;7.53;;;4.28;;
58878;SDS011;44660;42.664;23.266;2023-04-03T08:05:09;5.80;;;3.08;;
58878;SDS011;44660;42.664;23.266;2023-04-03T08:07:36;6.32;;;4.07;;
58878;SDS011;44660;42.664;23.266;2023-04-03T08:10:02;8.90;;;3.50;;
58878;SDS011;44660;42.664;23.266;2023-04-03T08:12:28;11.07;;;4.88;;
58878;SDS011;44660;42.664;23.266;2023-04-03T08:14:54;8.95;;;4.18;;
58878;SDS011;44660;42.664;23.266;2023-04-03T08:17:21;9.43;;;4.47;;
58878;SDS011;44660;42.664;23.266;2023-04-03T08:19:46;8.05;;;3.47;;
58878;SDS011;44660;42.664;23.266;2023-04-03T08:22:12;10.77;;;4.25;;
58878;SDS011;44660;42.664;23.266;2023-04-03T08:24:37;9.27;;;3.60;;
58878;SDS011;44660;42.664;23.266;2023-04-03T08:27:03;8.27;;;3.67;;
58878;SDS011;44660;42.664;23.266;2023-04-03T08:29:29;5.78;;;3.25;;
58878;SDS011;44660;42.664;23.266;2023-04-03T08:31:54;6.35;;;2.92;;
58878;SDS011;44660;42.664;23.266;2023-04-03T08:34:20;5.90;;;3.05;;
58878;SDS011;44660;42.664;23.266;2023-04-03T08:36:46;7.53;;;3.35;;
58878;SDS011;44660;42.664;23.266;2023-04-03T08:39:11;7.30;;;3.30;;
58878;SDS011;44660;42.664;23.266;2023-04-03T08:41:41;7.55;;;3.63;;
58878;SDS011;44660;42.664;23.266;2023-04-03T08:46:52;12.95;;;5.50;;
58878;SDS011;44660;42.664;23.266;2023-04-03T08:52:20;12.73;;;6.13;;
58878;SDS011;44660;42.664;23.266;2023-04-03T08:58:03;13.20;;;6.90;;
58878;SDS011;44660;42.664;23.266;2023-04-03T09:03:23;12.77;;;6.57;;
58878;SDS011;44660;42.664;23.266;2023-04-03T09:06:03;17.83;;;8.52;;
58878;SDS011;44660;42.664;23.266;2023-04-03T09:08:45;23.85;;;11.43;;
58878;SDS011;44660;42.664;23.266;2023-04-03T09:11:20;19.95;;;10.70;;
58878;SDS011;44660;42.664;23.266;2023-04-03T09:14:02;23.70;;;11.82;;
58878;SDS011;44660;42.664;23.266;2023-04-03T09:19:33;19.10;;;10.57;;
58878;SDS011;44660;42.664;23.266;2023-04-03T09:24:58;19.98;;;10.57;;
58878;SDS011;44660;42.664;23.266;2023-04-03T09:27:26;17.50;;;10.15;;
58878;SDS011;44660;42.664;23.266;2023-04-03T09:29:55;21.45;;;10.43;;
58878;SDS011;44660;42.664;23.266;2023-04-03T09:34:58;18.50;;;8.50;;
58878;SDS011;44660;42.664;23.266;2023-04-03T09:37:38;14.88;;;7.80;;
58878;SDS011;44660;42.664;23.266;2023-04-03T09:40:49;11.80;;;6.97;;
58878;SDS011;44660;42.664;23.266;2023-04-03T09:43:41;8.48;;;4.40;;
58878;SDS011;44660;42.664;23.266;2023-04-03T09:46:25;5.82;;;3.17;;
58878;SDS011;44660;42.664;23.266;2023-04-03T09:48:59;6.80;;;3.28;;
58878;SDS011;44660;42.664;23.266;2023-04-03T09:51:27;5.75;;;2.70;;
58878;SDS011;44660;42.664;23.266;2023-04-03T09:53:54;8.40;;;2.60;;
58878;SDS011;44660;42.664;23.266;2023-04-03T10:01:36;6.05;;;2.40;;
58878;SDS011;44660;42.664;23.266;2023-04-03T10:04:13;5.00;;;2.03;;
58878;SDS011;44660;42.664;23.266;2023-04-03T10:06:41;2.97;;;1.95;;
58878;SDS011;44660;42.664;23.266;2023-04-03T10:14:34;3.60;;;2.10;;
58878;SDS011;44660;42.664;23.266;2023-04-03T10:19:59;2.60;;;1.75;;
58878;SDS011;44660;42.664;23.266;2023-04-03T10:25:26;13.15;;;2.30;;
58878;SDS011;44660;42.664;23.266;2023-04-03T10:28:05;3.20;;;1.20;;
58878;SDS011;44660;42.664;23.266;2023-04-03T10:33:31;10.52;;;2.17;;
58878;SDS011;44660;42.664;23.266;2023-04-03T10:38:57;2.90;;;1.70;;
58878;SDS011;44660;42.664;23.266;2023-04-03T10:45:00;3.50;;;2.03;;
58878;SDS011;44660;42.664;23.266;2023-04-03T10:50:31;4.53;;;2.25;;
58878;SDS011;44660;42.664;23.266;2023-04-03T11:00:59;3.65;;;1.98;;
58878;SDS011;44660;42.664;23.266;2023-04-03T11:03:33;2.42;;;1.50;;
58878;SDS011;44660;42.664;23.266;2023-04-03T11:06:06;3.30;;;1.40;;
58878;SDS011;44660;42.664;23.266;2023-04-03T11:08:39;4.50;;;1.80;;
58878;SDS011;44660;42.664;23.266;2023-04-03T11:11:21;2.95;;;1.80;;
58878;SDS011;44660;42.664;23.266;2023-04-03T11:13:52;3.97;;;1.95;;
58878;SDS011;44660;42.664;23.266;2023-04-03T11:16:30;2.97;;;1.70;;
58878;SDS011;44660;42.664;23.266;2023-04-03T11:19:02;2.88;;;1.73;;
58878;SDS011;44660;42.664;23.266;2023-04-03T11:21:33;3.60;;;1.83;;
58878;SDS011;44660;42.664;23.266;2023-04-03T11:24:05;4.95;;;2.63;;
58878;SDS011;44660;42.664;23.266;2023-04-03T11:26:41;2.95;;;1.98;;
58878;SDS011;44660;42.664;23.266;2023-04-03T11:29:14;4.40;;;2.50;;
58878;SDS011;44660;42.664;23.266;2023-04-03T11:34:44;7.03;;;3.15;;
58878;SDS011;44660;42.664;23.266;2023-04-03T11:37:17;6.07;;;3.03;;
58878;SDS011;44660;42.664;23.266;2023-04-03T11:39:57;7.03;;;2.90;;
58878;SDS011;44660;42.664;23.266;2023-04-03T11:42:37;7.68;;;3.20;;
58878;SDS011;44660;42.664;23.266;2023-04-03T11:45:15;6.97;;;3.58;;
58878;SDS011;44660;42.664;23.266;2023-04-03T11:47:49;5.78;;;3.50;;
58878;SDS011;44660;42.664;23.266;2023-04-03T12:05:56;5.70;;;3.60;;
58878;SDS011;44660;42.664;23.266;2023-04-03T12:16:22;4.55;;;3.08;;
58878;SDS011;44660;42.664;23.266;2023-04-03T12:26:43;6.47;;;3.10;;
58878;SDS011;44660;42.664;23.266;2023-04-03T12:32:14;5.22;;;3.10;;
58878;SDS011;44660;42.664;23.266;2023-04-03T12:38:10;3.85;;;3.30;;
58878;SDS011;44660;42.664;23.266;2023-04-03T12:41:11;4.95;;;3.25;;
58878;SDS011;44660;42.664;23.266;2023-04-03T12:46:14;9.30;;;4.57;;
58878;SDS011;44660;42.664;23.266;2023-04-03T12:51:14;7.95;;;3.05;;
58878;SDS011;44660;42.664;23.266;2023-04-03T12:53:44;6.03;;;3.90;;
58878;SDS011;44660;42.664;23.266;2023-04-03T12:58:46;8.30;;;4.40;;
58878;SDS011;44660;42.664;23.266;2023-04-03T13:03:43;7.72;;;4.57;;
58878;SDS011;44660;42.664;23.266;2023-04-03T13:06:32;7.43;;;4.88;;
58878;SDS011;44660;42.664;23.266;2023-04-03T13:09:03;7.47;;;4.40;;
58878;SDS011;44660;42.664;23.266;2023-04-03T13:11:31;6.95;;;4.40;;
58878;SDS011;44660;42.664;23.266;2023-04-03T13:14:05;5.55;;;4.57;;
58878;SDS011;44660;42.664;23.266;2023-04-03T13:16:40;8.38;;;4.88;;
58878;SDS011;44660;42.664;23.266;2023-04-03T13:19:06;6.85;;;4.50;;
58878;SDS011;44660;42.664;23.266;2023-04-03T13:21:52;8.82;;;5.03;;
58878;SDS011;44660;42.664;23.266;2023-04-03T13:24:40;7.53;;;5.00;;
58878;SDS011;44660;42.664;23.266;2023-04-03T13:27:06;9.82;;;5.20;;
58878;SDS011;44660;42.664;23.266;2023-04-03T13:29:33;9.32;;;5.53;;
58878;SDS011;44660;42.664;23.266;2023-04-03T13:32:01;7.90;;;5.97;;
58878;SDS011;44660;42.664;23.266;2023-04-03T13:34:29;7.47;;;5.72;;
58878;SDS011;44660;42.664;23.266;2023-04-03T13:37:02;11.88;;;7.03;;
58878;SDS011;44660;42.664;23.266;2023-04-03T13:39:32;10.23;;;6.20;;
58878;SDS011;44660;42.664;23.266;2023-04-03T13:42:00;9.65;;;6.32;;
58878;SDS011;44660;42.664;23.266;2023-04-03T13:44:39;11.15;;;6.18;;
58878;SDS011;44660;42.664;23.266;2023-04-03T13:52:20;8.95;;;6.15;;
58878;SDS011;44660;42.664;23.266;2023-04-03T13:55:00;9.00;;;6.32;;
58878;SDS011;44660;42.664;23.266;2023-04-03T13:57:36;6.38;;;5.43;;
58878;SDS011;44660;42.664;23.266;2023-04-03T14:00:34;9.02;;;4.30;;
58878;SDS011;44660;42.664;23.266;2023-04-03T14:03:13;9.40;;;4.70;;
58878;SDS011;44660;42.664;23.266;2023-04-03T14:05:43;10.60;;;4.90;;
58878;SDS011;44660;42.664;23.266;2023-04-03T14:08:10;7.80;;;4.93;;
58878;SDS011;44660;42.664;23.266;2023-04-03T14:10:36;6.65;;;4.22;;
58878;SDS011;44660;42.664;23.266;2023-04-03T14:13:02;6.25;;;4.13;;
58878;SDS011;44660;42.664;23.266;2023-04-03T14:15:28;7.18;;;4.20;;
58878;SDS011;44660;42.664;23.266;2023-04-03T14:17:56;4.93;;;3.92;;
58878;SDS011;44660;42.664;23.266;2023-04-03T14:20:23;4.55;;;3.55;;
58878;SDS011;44660;42.664;23.266;2023-04-03T14:22:51;5.10;;;3.45;;
58878;SDS011;44660;42.664;23.266;2023-04-03T14:25:17;3.45;;;2.80;;
58878;SDS011;44660;42.664;23.266;2023-04-03T14:27:48;6.28;;;3.80;;
58878;SDS011;44660;42.664;23.266;2023-04-03T14:30:19;6.63;;;3.38;;
58878;SDS011;44660;42.664;23.266;2023-04-03T14:32:48;6.35;;;3.83;;
58878;SDS011;44660;42.664;23.266;2023-04-03T14:35:15;5.63;;;3.42;;
58878;SDS011;44660;42.664;23.266;2023-04-03T14:37:42;7.05;;;3.88;;
58878;SDS011;44660;42.664;23.266;2023-04-03T14:40:11;4.45;;;3.25;;
58878;SDS011;44660;42.664;23.266;2023-04-03T14:42:39;4.97;;;3.17;;
58878;SDS011;44660;42.664;23.266;2023-04-03T14:45:07;5.68;;;3.72;;
58878;SDS011;44660;42.664;23.266;2023-04-03T14:47:37;5.40;;;2.75;;
58878;SDS011;44660;42.664;23.266;2023-04-03T14:50:07;5.35;;;3.47;;
58878;SDS011;44660;42.664;23.266;2023-04-03T14:52:39;5.25;;;3.28;;
58878;SDS011;44660;42.664;23.266;2023-04-03T14:55:06;5.85;;;3.08;;
58878;SDS011;44660;42.664;23.266;2023-04-03T14:57:32;3.40;;;2.80;;
58878;SDS011;44660;42.664;23.266;2023-04-03T14:59:58;4.28;;;3.00;;
58878;SDS011;44660;42.664;23.266;2023-04-03T15:02:35;4.15;;;2.83;;
58878;SDS011;44660;42.664;23.266;2023-04-03T15:05:04;3.92;;;2.45;;
58878;SDS011;44660;42.664;23.266;2023-04-03T15:07:36;4.32;;;2.80;;
58878;SDS011;44660;42.664;23.266;2023-04-03T15:10:13;4.03;;;2.55;;
58878;SDS011;44660;42.664;23.266;2023-04-03T15:12:41;2.92;;;2.42;;
58878;SDS011;44660;42.664;23.266;2023-04-03T15:15:08;3.40;;;2.50;;
58878;SDS011;44660;42.664;23.266;2023-04-03T15:17:34;3.50;;;2.60;;
58878;SDS011;44660;42.664;23.266;2023-04-03T15:20:00;4.13;;;2.92;;
58878;SDS011;44660;42.664;23.266;2023-04-03T15:22:26;4.60;;;3.17;;
58878;SDS011;44660;42.664;23.266;2023-04-03T15:24:52;4.10;;;2.88;;
58878;SDS011;44660;42.664;23.266;2023-04-03T15:27:18;4.50;;;3.10;;
58878;SDS011;44660;42.664;23.266;2023-04-03T15:29:44;6.85;;;3.63;;
58878;SDS011;44660;42.664;23.266;2023-04-03T15:32:10;6.88;;;4.43;;
58878;SDS011;44660;42.664;23.266;2023-04-03T15:34:36;7.90;;;4.88;;
58878;SDS011;44660;42.664;23.266;2023-04-03T15:37:02;5.07;;;3.50;;
58878;SDS011;44660;42.664;23.266;2023-04-03T15:39:28;6.00;;;3.10;;
58878;SDS011;44660;42.664;23.266;2023-04-03T15:41:54;5.80;;;3.90;;
58878;SDS011;44660;42.664;23.266;2023-04-03T15:44:20;5.65;;;4.05;;
58878;SDS011;44660;42.664;23.266;2023-04-03T15:46:46;8.63;;;5.38;;
58878;SDS011;44660;42.664;23.266;2023-04-03T15:49:14;8.80;;;4.70;;
58878;SDS011;44660;42.664;23.266;2023-04-03T15:51:40;5.47;;;4.10;;
58878;SDS011;44660;42.664;23.266;2023-04-03T15:54:06;4.90;;;4.05;;
58878;SDS011;44660;42.664;23.266;2023-04-03T15:56:31;6.47;;;4.47;;
58878;SDS011;44660;42.664;23.266;2023-04-03T15:58:57;9.00;;;5.10;;
58878;SDS011;44660;42.664;23.266;2023-04-03T16:01:22;7.53;;;5.05;;
58878;SDS011;44660;42.664;23.266;2023-04-03T16:03:48;7.22;;;4.70;;
58878;SDS011;44660;42.664;23.266;2023-04-03T16:06:14;8.50;;;4.22;;
58878;SDS011;44660;42.664;23.266;2023-04-03T16:08:51;5.90;;;3.85;;
58878;SDS011;44660;42.664;23.266;2023-04-03T16:11:16;7.93;;;4.35;;
58878;SDS011;44660;42.664;23.266;2023-04-03T16:13:42;6.40;;;4.43;;
58878;SDS011;44660;42.664;23.266;2023-04-03T16:16:08;7.72;;;4.47;;
58878;SDS011;44660;42.664;23.266;2023-04-03T16:18:34;8.63;;;4.93;;
58878;SDS011;44660;42.664;23.266;2023-04-03T16:21:01;8.75;;;4.78;;
58878;SDS011;44660;42.664;23.266;2023-04-03T16:23:27;9.50;;;5.55;;
58878;SDS011;44660;42.664;23.266;2023-04-03T16:25:53;9.75;;;6.22;;
58878;SDS011;44660;42.664;23.266;2023-04-03T16:28:18;29.48;;;16.55;;
58878;SDS011;44660;42.664;23.266;2023-04-03T16:30:44;10.75;;;6.45;;
58878;SDS011;44660;42.664;23.266;2023-04-03T16:33:12;7.63;;;4.30;;
58878;SDS011;44660;42.664;23.266;2023-04-03T16:35:38;5.55;;;3.65;;
58878;SDS011;44660;42.664;23.266;2023-04-03T16:38:05;6.07;;;3.92;;